Time;durP1;ratioP1;P1;durP2;ratioP2;P2;SDS_P1;SDS_P2;PMS_P1;PMS_P2;Temp;Humidity;BMP_temperature;BMP_pressure;BME280_temperature;BME280_humidity;BME280_pressure;Samples;Min_cycle;Max_cycle;Signal;HPM_P1;HPM_P2
2022/08/31 00:05:58;;;;;;;0.82;0.52;;;15.60;99.90;;;;;;5095061;28;20537;-75
2022/08/31 00:08:24;;;;;;;0.90;0.68;;;15.70;99.90;;;;;;5094405;28;20443;-75
2022/08/31 00:10:50;;;;;;;2.20;0.68;;;15.60;99.90;;;;;;5094611;28;20413;-75
2022/08/31 00:13:16;;;;;;;1.17;0.60;;;15.30;99.90;;;;;;5094575;28;20021;-76
2022/08/31 00:15:42;;;;;;;0.93;0.60;;;15.30;99.90;;;;;;5094677;28;20466;-74
2022/08/31 00:18:07;;;;;;;1.38;0.73;;;15.20;99.90;;;;;;5093181;28;20024;-75
2022/08/31 00:20:33;;;;;;;2.20;0.77;;;15.00;99.90;;;;;;5094480;28;20013;-75
2022/08/31 00:22:59;;;;;;;2.15;0.60;;;14.90;99.90;;;;;;5094477;28;20047;-75
2022/08/31 00:25:25;;;;;;;0.88;0.70;;;14.80;99.90;;;;;;5094425;28;20103;-75
2022/08/31 00:27:50;;;;;;;2.05;0.80;;;14.70;99.90;;;;;;5094587;28;20024;-76
2022/08/31 00:30:16;;;;;;;1.88;0.50;;;14.70;99.90;;;;;;5094356;28;20095;-75
2022/08/31 00:32:42;;;;;;;3.95;0.82;;;14.60;99.90;;;;;;5107639;28;20076;-76
2022/08/31 00:35:08;;;;;;;3.10;0.85;;;14.60;99.90;;;;;;5114665;28;20019;-75
2022/08/31 00:37:33;;;;;;;1.20;0.60;;;14.40;99.90;;;;;;5114460;28;20048;-76
2022/08/31 00:39:59;;;;;;;0.82;0.70;;;14.50;99.90;;;;;;5114563;28;20461;-75
2022/08/31 00:42:24;;;;;;;2.47;0.88;;;14.40;99.90;;;;;;5114235;28;20423;-75
2022/08/31 00:44:50;;;;;;;0.88;0.63;;;14.20;99.90;;;;;;5114443;28;20024;-75
2022/08/31 00:47:16;;;;;;;1.15;0.90;;;14.10;99.90;;;;;;5114180;28;20111;-75
2022/08/31 00:49:48;;;;;;;3.65;0.60;;;14.10;99.90;;;;;;5096270;28;20460;-75
2022/08/31 00:52:22;;;;;;;2.95;0.80;;;14.00;99.90;;;;;;5094245;28;20073;-75
2022/08/31 00:54:53;;;;;;;2.00;0.80;;;13.90;99.90;;;;;;5093647;28;20464;-75
2022/08/31 00:57:20;;;;;;;1.60;0.90;;;13.90;99.90;;;;;;5093752;28;20111;-75
2022/08/31 00:59:47;;;;;;;1.55;0.90;;;13.90;99.90;;;;;;5093748;28;20073;-75
2022/08/31 01:02:13;;;;;;;0.80;0.70;;;13.90;99.90;;;;;;5093550;28;20024;-75
2022/08/31 01:04:39;;;;;;;1.27;0.70;;;13.80;99.90;;;;;;5093542;28;20025;-75
2022/08/31 01:07:06;;;;;;;0.60;0.50;;;13.80;99.90;;;;;;5093505;28;20525;-75
2022/08/31 01:09:36;;;;;;;0.75;0.68;;;13.70;99.90;;;;;;5093303;28;20117;-75
2022/08/31 01:12:02;;;;;;;2.08;0.85;;;13.70;99.90;;;;;;5093542;28;20445;-75
2022/08/31 01:14:28;;;;;;;0.75;0.50;;;13.70;99.90;;;;;;5093439;28;20032;-75
2022/08/31 01:16:55;;;;;;;1.33;0.85;;;13.70;99.90;;;;;;5093365;28;20111;-75
2022/08/31 01:19:42;;;;;;;0.80;0.70;;;13.60;99.90;;;;;;5093370;28;20024;-75
2022/08/31 01:23:07;;;;;;;1.60;0.82;;;13.50;99.90;;;;;;5093550;28;20024;-75
2022/08/31 01:25:35;;;;;;;1.23;0.82;;;13.50;99.90;;;;;;5011063;28;20472;-75
2022/08/31 01:28:04;;;;;;;1.40;0.80;;;13.40;99.90;;;;;;5010733;28;20110;-76
2022/08/31 01:30:31;;;;;;;1.42;0.88;;;13.40;99.90;;;;;;5063884;28;20029;-76
2022/08/31 01:32:58;;;;;;;1.20;0.88;;;13.30;99.90;;;;;;5093621;28;20078;-76
2022/08/31 01:35:24;;;;;;;0.90;0.90;;;13.30;99.90;;;;;;5093582;28;20474;-76
2022/08/31 01:37:50;;;;;;;0.85;0.70;;;13.20;99.90;;;;;;5093241;28;20052;-76
2022/08/31 01:40:17;;;;;;;1.20;0.70;;;13.20;99.90;;;;;;5100432;28;20067;-76
2022/08/31 01:42:43;;;;;;;1.60;0.70;;;13.30;99.90;;;;;;5113714;28;20054;-75
2022/08/31 01:45:10;;;;;;;1.38;0.93;;;13.30;99.90;;;;;;5113508;28;20019;-75
2022/08/31 01:47:37;;;;;;;1.30;0.90;;;13.20;99.90;;;;;;5113494;28;20036;-76
2022/08/31 01:50:03;;;;;;;1.95;1.00;;;13.10;99.90;;;;;;5113597;28;20027;-76
2022/08/31 01:52:29;;;;;;;1.90;0.65;;;13.10;99.90;;;;;;5113726;28;20034;-76
2022/08/31 01:54:55;;;;;;;0.90;0.80;;;13.10;99.90;;;;;;5113714;28;20103;-76
2022/08/31 01:57:21;;;;;;;1.10;0.63;;;13.10;99.90;;;;;;5113443;28;20036;-76
2022/08/31 01:59:46;;;;;;;1.58;0.85;;;13.10;99.90;;;;;;5113494;28;20049;-76
2022/08/31 02:02:12;;;;;;;0.70;0.70;;;13.00;99.90;;;;;;5113356;28;20526;-75
2022/08/31 02:04:38;;;;;;;1.05;0.80;;;13.00;99.90;;;;;;5113493;28;20422;-76
2022/08/31 02:07:04;;;;;;;1.30;0.90;;;12.90;99.90;;;;;;5113498;28;20019;-75
2022/08/31 02:09:32;;;;;;;0.80;0.80;;;12.80;99.90;;;;;;5113452;28;20084;-74
2022/08/31 02:11:58;;;;;;;2.35;0.95;;;12.80;99.90;;;;;;5113302;28;20051;-75
2022/08/31 02:14:24;;;;;;;1.35;0.95;;;12.80;99.90;;;;;;5113199;28;20361;-74
2022/08/31 02:16:50;;;;;;;2.67;0.77;;;12.80;99.90;;;;;;5113609;28;20481;-74
2022/08/31 02:19:15;;;;;;;1.40;0.90;;;12.60;99.90;;;;;;5113493;28;20032;-74
2022/08/31 02:21:41;;;;;;;0.82;0.82;;;12.60;99.90;;;;;;5113431;28;20024;-75
2022/08/31 02:24:10;;;;;;;1.45;0.77;;;12.50;99.90;;;;;;5113738;28;20023;-74
2022/08/31 02:26:35;;;;;;;1.15;0.60;;;12.50;99.90;;;;;;5113628;28;20363;-75
2022/08/31 02:29:01;;;;;;;0.85;0.77;;;12.30;99.90;;;;;;5113099;28;20653;-75
2022/08/31 02:31:27;;;;;;;1.25;0.90;;;12.30;99.90;;;;;;5113024;28;20024;-75
2022/08/31 02:33:52;;;;;;;0.63;0.60;;;12.30;99.90;;;;;;5113243;28;20024;-75
2022/08/31 02:36:18;;;;;;;1.45;0.88;;;12.10;99.90;;;;;;5113268;28;20024;-75
2022/08/31 02:38:44;;;;;;;0.60;0.60;;;12.00;99.90;;;;;;5112970;28;20039;-74
2022/08/31 02:41:09;;;;;;;0.80;0.57;;;12.00;99.90;;;;;;5115218;28;20039;-75
2022/08/31 02:43:35;;;;;;;3.30;0.88;;;11.90;99.90;;;;;;5116862;28;20028;-75
2022/08/31 02:46:00;;;;;;;1.35;0.70;;;11.90;99.90;;;;;;5116729;28;20441;-74
2022/08/31 02:48:26;;;;;;;1.75;0.70;;;11.90;99.90;;;;;;5116834;28;20077;-75
2022/08/31 02:50:52;;;;;;;0.70;0.70;;;11.80;99.90;;;;;;5116944;28;20066;-75
2022/08/31 02:53:20;;;;;;;1.98;0.90;;;11.80;99.90;;;;;;5116818;28;20629;-75
2022/08/31 02:55:46;;;;;;;1.50;0.98;;;11.70;99.90;;;;;;5116604;28;20019;-75
2022/08/31 02:58:13;;;;;;;0.85;0.70;;;11.60;99.90;;;;;;5116694;28;20093;-74
2022/08/31 03:00:43;;;;;;;1.63;0.90;;;11.60;99.90;;;;;;5116818;28;20024;-74
2022/08/31 03:03:08;;;;;;;2.00;0.80;;;11.60;99.90;;;;;;5116707;28;20102;-75
2022/08/31 03:05:34;;;;;;;2.05;0.90;;;11.70;99.90;;;;;;5116501;28;20024;-75
2022/08/31 03:07:59;;;;;;;1.15;0.90;;;11.60;99.90;;;;;;5116501;28;20027;-75
2022/08/31 03:10:25;;;;;;;1.48;0.63;;;11.60;99.90;;;;;;5116446;28;20023;-75
2022/08/31 03:12:52;;;;;;;2.60;0.82;;;11.60;99.90;;;;;;5116443;28;20020;-75
2022/08/31 03:15:20;;;;;;;1.75;0.80;;;11.50;99.90;;;;;;5116244;28;20381;-75
2022/08/31 03:17:46;;;;;;;1.98;0.90;;;11.50;99.90;;;;;;5116256;28;20054;-74
2022/08/31 03:20:13;;;;;;;0.68;0.68;;;11.50;99.90;;;;;;5116246;28;20012;-75
2022/08/31 03:22:39;;;;;;;0.93;0.70;;;11.40;99.90;;;;;;5116322;28;20024;-75
2022/08/31 03:25:07;;;;;;;1.90;0.82;;;11.40;99.90;;;;;;5116345;28;20019;-75
2022/08/31 03:27:32;;;;;;;4.50;0.90;;;11.40;99.90;;;;;;5116057;28;20126;-75
2022/08/31 03:29:58;;;;;;;1.85;0.70;;;11.30;99.90;;;;;;5116250;28;20517;-75
2022/08/31 03:32:26;;;;;;;0.70;0.70;;;11.30;99.90;;;;;;5116298;28;20019;-75
2022/08/31 03:34:54;;;;;;;0.70;0.70;;;11.20;99.90;;;;;;5116570;28;20030;-75
2022/08/31 03:37:21;;;;;;;1.10;0.70;;;11.20;99.90;;;;;;5115726;28;20451;-75
2022/08/31 03:39:47;;;;;;;1.27;0.80;;;11.20;99.90;;;;;;5116069;28;20051;-75
2022/08/31 03:42:13;;;;;;;1.00;0.80;;;11.20;99.90;;;;;;5116312;28;20016;-75
2022/08/31 03:44:38;;;;;;;1.17;0.70;;;11.10;99.90;;;;;;5115987;28;20081;-75
2022/08/31 03:47:04;;;;;;;1.13;0.90;;;11.10;99.90;;;;;;5115708;28;20024;-75
2022/08/31 03:49:29;;;;;;;1.00;0.80;;;11.10;99.90;;;;;;5115805;28;20016;-76
2022/08/31 03:51:55;;;;;;;1.10;0.70;;;11.00;99.90;;;;;;5115606;28;20024;-76
2022/08/31 03:54:21;;;;;;;1.45;0.73;;;10.90;99.90;;;;;;5115769;28;20020;-76
2022/08/31 03:56:46;;;;;;;2.15;0.80;;;11.00;99.90;;;;;;5115700;28;20030;-75
2022/08/31 03:59:12;;;;;;;2.47;0.80;;;11.00;99.90;;;;;;5115301;28;20122;-76
2022/08/31 04:01:38;;;;;;;1.80;0.77;;;10.90;99.90;;;;;;5115585;28;20027;-75
2022/08/31 04:04:04;;;;;;;2.60;0.85;;;11.00;99.90;;;;;;5096272;28;20020;-76
2022/08/31 04:06:30;;;;;;;2.15;1.10;;;10.90;99.90;;;;;;5095103;28;20073;-76
2022/08/31 04:08:56;;;;;;;1.05;0.95;;;10.90;99.90;;;;;;5113951;28;20028;-76
2022/08/31 04:11:22;;;;;;;2.38;1.00;;;11.00;99.90;;;;;;5115291;28;20095;-76
2022/08/31 04:13:48;;;;;;;0.82;0.80;;;10.90;99.90;;;;;;5115414;28;20062;-76
2022/08/31 04:16:18;;;;;;;1.83;0.85;;;10.90;99.90;;;;;;5115138;28;20030;-76
2022/08/31 04:18:44;;;;;;;0.95;0.82;;;10.80;99.90;;;;;;5115217;28;20023;-75
2022/08/31 04:21:16;;;;;;;1.10;0.80;;;10.80;99.90;;;;;;5102239;28;20035;-75
2022/08/31 04:23:41;;;;;;;1.65;0.90;;;10.70;99.90;;;;;;5094648;28;20035;-75
2022/08/31 04:26:28;;;;;;;1.10;1.00;;;10.70;99.90;;;;;;5094518;28;20020;-76
2022/08/31 04:28:54;;;;;;;1.10;1.00;;;10.50;99.90;;;;;;5094523;28;20016;-75
2022/08/31 04:31:22;;;;;;;1.08;0.82;;;10.60;99.90;;;;;;5094409;28;20028;-75
2022/08/31 04:33:48;;;;;;;2.72;1.27;;;10.60;99.90;;;;;;5094574;28;20107;-76
2022/08/31 04:36:16;;;;;;;1.30;1.00;;;10.60;99.90;;;;;;5094687;28;20023;-76
2022/08/31 04:38:44;;;;;;;1.52;1.23;;;10.50;99.90;;;;;;5094122;28;20098;-75
2022/08/31 04:41:12;;;;;;;4.65;1.27;;;10.40;99.90;;;;;;5094294;28;20031;-75
2022/08/31 04:43:39;;;;;;;1.73;1.17;;;10.30;99.90;;;;;;5094333;28;20024;-75
2022/08/31 04:46:07;;;;;;;2.67;1.40;;;10.40;99.90;;;;;;5094398;28;20401;-75
2022/08/31 04:48:34;;;;;;;1.48;1.13;;;10.20;99.90;;;;;;5094462;28;20169;-76
2022/08/31 04:51:09;;;;;;;1.20;1.10;;;10.30;99.90;;;;;;5094225;28;20432;-76
2022/08/31 04:53:35;;;;;;;2.42;1.05;;;10.40;99.90;;;;;;5094471;28;20386;-76
2022/08/31 04:56:13;;;;;;;1.70;1.25;;;10.10;99.90;;;;;;5094361;28;20116;-76
2022/08/31 04:58:45;;;;;;;1.30;1.20;;;10.30;99.90;;;;;;5094607;28;20063;-76
2022/08/31 05:01:13;;;;;;;2.03;1.40;;;10.40;99.90;;;;;;5094095;28;20024;-75
2022/08/31 05:03:39;;;;;;;2.42;1.60;;;10.40;99.90;;;;;;5093685;28;20058;-75
2022/08/31 05:06:05;;;;;;;1.52;1.30;;;10.40;99.90;;;;;;5094423;28;20040;-75
2022/08/31 05:08:31;;;;;;;2.17;1.45;;;10.50;99.90;;;;;;5093861;28;20097;-75
2022/08/31 05:10:56;;;;;;;1.95;1.35;;;10.50;99.90;;;;;;5102697;28;20023;-75
2022/08/31 05:13:23;;;;;;;1.58;1.30;;;10.50;99.90;;;;;;5114332;28;20028;-75
2022/08/31 05:15:48;;;;;;;2.30;1.30;;;10.60;99.90;;;;;;5114312;28;20106;-75
2022/08/31 05:18:14;;;;;;;2.15;1.00;;;10.60;99.90;;;;;;5113507;28;20111;-75
2022/08/31 05:20:40;;;;;;;1.33;1.23;;;10.70;99.90;;;;;;5113885;28;20031;-75
2022/08/31 05:23:06;;;;;;;2.80;1.20;;;10.80;99.90;;;;;;5113982;28;20645;-75
2022/08/31 05:25:32;;;;;;;2.90;1.30;;;10.80;99.90;;;;;;5113778;28;20098;-75
2022/08/31 05:27:58;;;;;;;1.65;1.38;;;10.80;99.90;;;;;;5113859;28;20035;-75
2022/08/31 05:30:24;;;;;;;2.50;1.20;;;10.90;99.90;;;;;;5114091;28;20027;-75
2022/08/31 05:32:50;;;;;;;1.58;1.10;;;11.10;99.90;;;;;;5114002;28;20016;-76
2022/08/31 05:35:16;;;;;;;1.55;1.02;;;11.10;99.90;;;;;;5113866;28;20094;-76
2022/08/31 05:37:41;;;;;;;2.97;1.33;;;11.20;99.90;;;;;;5113467;28;20051;-76
2022/08/31 05:40:08;;;;;;;2.13;1.10;;;11.40;99.90;;;;;;5113765;28;20035;-75
2022/08/31 05:42:34;;;;;;;0.90;0.80;;;11.60;99.90;;;;;;5113620;28;20031;-75
2022/08/31 05:44:59;;;;;;;3.05;1.10;;;12.00;99.90;;;;;;5113412;28;20023;-75
2022/08/31 05:47:25;;;;;;;1.20;1.10;;;12.10;99.90;;;;;;5113293;28;20031;-75
2022/08/31 05:49:51;;;;;;;1.58;1.08;;;12.10;99.90;;;;;;5113384;28;20088;-76
2022/08/31 05:52:17;;;;;;;4.63;1.10;;;12.30;99.90;;;;;;5113587;28;20132;-75
2022/08/31 05:54:42;;;;;;;1.20;1.10;;;12.30;99.90;;;;;;5113342;28;20028;-76
2022/08/31 05:57:08;;;;;;;1.70;1.20;;;12.40;99.90;;;;;;5113292;28;20019;-76
2022/08/31 05:59:34;;;;;;;1.40;1.20;;;12.50;99.90;;;;;;5113232;28;20027;-76
2022/08/31 06:02:01;;;;;;;2.95;1.63;;;12.70;99.90;;;;;;5113418;28;20028;-75
2022/08/31 06:04:27;;;;;;;1.90;1.60;;;12.80;99.90;;;;;;5113323;28;20076;-76
2022/08/31 06:06:53;;;;;;;2.20;1.20;;;13.00;99.90;;;;;;5113558;28;20023;-75
2022/08/31 06:09:19;;;;;;;3.20;1.25;;;13.10;99.90;;;;;;5113211;28;20174;-75
2022/08/31 06:11:45;;;;;;;1.70;1.20;;;13.20;99.90;;;;;;5113328;28;20105;-75
2022/08/31 06:14:11;;;;;;;2.08;1.40;;;13.30;99.90;;;;;;5113588;28;20217;-76
2022/08/31 06:16:38;;;;;;;2.28;1.40;;;13.30;99.90;;;;;;5117216;28;20023;-75
2022/08/31 06:19:06;;;;;;;1.98;1.15;;;13.50;99.90;;;;;;5117068;28;20034;-75
2022/08/31 06:21:34;;;;;;;2.58;1.10;;;13.80;99.90;;;;;;5117469;28;20024;-76
2022/08/31 06:24:02;;;;;;;1.88;1.02;;;13.80;99.90;;;;;;5117297;28;20024;-76
2022/08/31 06:26:30;;;;;;;1.45;1.10;;;13.80;99.90;;;;;;5117810;28;20015;-76
2022/08/31 06:28:58;;;;;;;1.88;1.05;;;13.90;99.90;;;;;;5117555;28;20389;-76
2022/08/31 06:31:33;;;;;;;2.25;1.15;;;14.00;99.90;;;;;;5099401;28;20428;-76
2022/08/31 06:34:00;;;;;;;5.47;1.20;;;14.20;99.90;;;;;;5104285;28;20534;-76
2022/08/31 06:36:28;;;;;;;2.05;1.30;;;14.40;99.90;;;;;;5102401;28;20032;-77
2022/08/31 06:38:55;;;;;;;1.48;1.00;;;14.50;99.90;;;;;;5117627;28;20157;-76
2022/08/31 06:41:25;;;;;;;1.23;1.05;;;14.70;99.90;;;;;;5119037;28;20027;-76
2022/08/31 06:43:51;;;;;;;;;;;15.10;99.90;;;;;;5118586;28;20015;-75
2022/08/31 06:46:19;;;;;;;1.20;0.80;;;16.00;99.90;;;;;;5117558;28;19911;-76
2022/08/31 06:48:47;;;;;;;3.40;1.05;;;21.50;99.90;;;;;;5117444;28;20030;-76
2022/08/31 06:51:12;;;;;;;2.42;0.80;;;24.90;99.90;;;;;;5117756;28;20045;-76
2022/08/31 06:53:41;;;;;;;2.53;0.95;;;25.90;99.90;;;;;;5117305;28;20035;-76
2022/08/31 06:56:09;;;;;;;1.27;1.00;;;25.60;99.90;;;;;;5110791;28;20016;-76
2022/08/31 06:58:35;;;;;;;2.85;0.98;;;27.90;99.90;;;;;;5117371;28;20092;-77
2022/08/31 07:01:08;;;;;;;2.25;0.80;;;28.30;99.90;;;;;;5117235;28;20416;-76
2022/08/31 07:03:36;;;;;;;1.42;1.00;;;29.20;99.90;;;;;;5117574;28;20016;-76
2022/08/31 07:06:19;;;;;;;1.13;0.93;;;29.30;99.90;;;;;;5117289;28;20553;-77
2022/08/31 07:08:47;;;;;;;0.88;0.88;;;30.00;99.90;;;;;;5116400;28;20378;-76
2022/08/31 07:11:19;;;;;;;0.60;0.50;;;30.00;99.90;;;;;;5117276;28;20042;-76
2022/08/31 07:13:46;;;;;;;1.10;0.80;;;29.80;99.90;;;;;;5117416;28;20020;-76
2022/08/31 07:16:15;;;;;;;2.30;0.70;;;29.00;99.90;;;;;;5114315;28;20081;-76
2022/08/31 07:18:43;;;;;;;1.15;0.73;;;30.10;99.90;;;;;;5109728;28;20039;-77
2022/08/31 07:21:15;;;;;;;1.55;0.88;;;29.60;99.90;;;;;;5102768;28;20024;-76
2022/08/31 07:23:42;;;;;;;1.13;0.70;;;30.30;99.90;;;;;;5109415;28;20019;-76
2022/08/31 07:26:15;;;;;;;1.15;0.80;;;30.00;99.90;;;;;;5104845;28;20085;-76
2022/08/31 07:28:42;;;;;;;1.48;0.75;;;31.50;99.90;;;;;;5112372;28;20038;-76
2022/08/31 07:31:09;;;;;;;0.73;0.70;;;31.60;99.90;;;;;;5110983;28;20031;-76
2022/08/31 07:33:42;;;;;;;0.70;0.70;;;32.40;99.90;;;;;;5116728;28;20016;-77
2022/08/31 07:36:11;;;;;;;0.52;0.50;;;32.60;99.90;;;;;;5117202;28;20094;-78
2022/08/31 07:44:08;;;;;;;0.68;0.60;;;29.40;99.90;;;;;;5117222;28;20034;-76
2022/08/31 07:46:34;;;;;;;1.95;0.63;;;30.80;99.90;;;;;;5116665;28;20485;-76
2022/08/31 07:49:01;;;;;;;1.65;0.73;;;33.00;99.90;;;;;;5116418;28;20458;-77
2022/08/31 07:51:27;;;;;;;0.82;0.70;;;32.90;99.90;;;;;;5116262;28;20015;-77
2022/08/31 07:53:54;;;;;;;0.60;0.60;;;33.20;99.90;;;;;;5116311;28;20073;-77
2022/08/31 07:56:22;;;;;;;1.88;0.77;;;32.10;99.90;;;;;;5116136;28;20020;-76
2022/08/31 07:58:48;;;;;;;1.27;0.80;;;32.00;99.90;;;;;;5116813;28;20016;-77
2022/08/31 08:01:15;;;;;;;0.63;0.63;;;31.90;99.90;;;;;;5116569;28;20023;-77
2022/08/31 08:03:43;;;;;;;2.38;0.50;;;32.20;99.90;;;;;;5116286;28;20020;-77
2022/08/31 08:06:14;;;;;;;1.10;0.50;;;30.90;99.90;;;;;;5116554;28;20029;-76
2022/08/31 08:08:42;;;;;;;1.33;0.50;;;31.20;99.90;;;;;;5110652;28;20385;-78
2022/08/31 08:11:17;;;;;;;1.15;0.60;;;32.00;99.90;;;;;;5116021;28;20149;-77
2022/08/31 08:13:43;;;;;;;2.97;0.63;;;31.20;99.90;;;;;;5116092;28;20034;-77
2022/08/31 08:16:09;;;;;;;2.70;0.77;;;32.90;99.20;;;;;;5115483;28;20055;-77
2022/08/31 08:18:35;;;;;;;2.40;0.73;;;33.30;98.30;;;;;;5116579;28;20039;-76
2022/08/31 08:21:00;;;;;;;0.80;0.50;;;31.90;97.30;;;;;;5111900;28;20020;-77
2022/08/31 08:23:26;;;;;;;2.78;0.75;;;31.80;97.30;;;;;;5096398;28;20051;-77
2022/08/31 08:25:52;;;;;;;1.67;0.70;;;31.40;96.80;;;;;;5096205;28;20026;-77
2022/08/31 08:28:19;;;;;;;1.65;0.63;;;31.40;96.80;;;;;;5111434;28;20023;-77
2022/08/31 08:30:46;;;;;;;1.30;0.90;;;32.30;95.70;;;;;;5115554;28;20070;-77
2022/08/31 08:33:12;;;;;;;1.58;1.15;;;31.90;96.30;;;;;;5115850;28;20106;-77
2022/08/31 08:35:39;;;;;;;1.35;0.80;;;31.50;95.10;;;;;;5116009;28;20058;-76
2022/08/31 08:38:05;;;;;;;1.83;0.90;;;31.50;95.10;;;;;;5114587;28;20134;-77
2022/08/31 08:40:40;;;;;;;1.17;0.70;;;33.30;93.90;;;;;;5115757;28;20055;-77
2022/08/31 08:43:10;;;;;;;0.70;0.50;;;32.50;93.60;;;;;;5096914;28;20077;-77
2022/08/31 08:45:35;;;;;;;0.70;0.45;;;32.20;93.10;;;;;;5115700;28;20045;-77
2022/08/31 08:48:08;;;;;;;1.50;0.50;;;32.70;91.70;;;;;;5115502;28;20500;-77
2022/08/31 08:50:35;;;;;;;1.30;0.45;;;32.20;91.50;;;;;;5115748;28;20024;-77
2022/08/31 08:53:04;;;;;;;0.50;0.50;;;31.70;90.50;;;;;;5115110;28;20069;-77
2022/08/31 08:55:42;;;;;;;0.80;0.50;;;32.30;90.80;;;;;;5114719;28;20019;-76
2022/08/31 08:58:12;;;;;;;0.50;0.50;;;29.30;86.20;;;;;;5114583;28;20028;-77
2022/08/31 09:00:41;;;;;;;0.60;0.40;;;33.70;89.50;;;;;;5094587;28;20016;-78
2022/08/31 09:03:32;;;;;;;1.52;0.60;;;33.50;87.20;;;;;;5101771;28;20011;-76
2022/08/31 09:06:11;;;;;;;1.75;0.38;;;32.10;83.80;;;;;;5077404;28;20148;-77
2022/08/31 09:09:07;;;;;;;0.90;0.40;;;31.90;83.10;;;;;;5107397;28;20028;-76
2022/08/31 09:12:03;;;;;;;0.47;0.40;;;33.20;85.50;;;;;;5094358;28;20422;-77
2022/08/31 09:15:14;;;;;;;0.80;0.50;;;33.30;84.20;;;;;;5094303;28;20052;-77
2022/08/31 09:17:54;;;;;;;0.95;0.52;;;32.30;82.30;;;;;;5041102;28;20505;-77
2022/08/31 09:20:20;;;;;;;2.10;0.50;;;32.60;81.70;;;;;;5094249;28;20046;-77
2022/08/31 09:22:48;;;;;;;0.57;0.57;;;32.50;83.70;;;;;;5094245;28;20054;-77
2022/08/31 09:25:36;;;;;;;2.92;0.50;;;31.10;79.00;;;;;;5076219;28;20032;-77
2022/08/31 09:28:07;;;;;;;1.70;0.50;;;32.10;81.10;;;;;;5095820;28;20156;-77
2022/08/31 09:30:42;;;;;;;0.47;0.40;;;31.70;80.60;;;;;;5093239;28;20020;-77
2022/08/31 09:33:17;;;;;;;0.65;0.40;;;32.00;79.50;;;;;;5098235;28;20028;-77
2022/08/31 09:35:43;;;;;;;0.43;0.30;;;32.20;78.40;;;;;;5104950;28;20466;-76
2022/08/31 09:38:15;;;;;;;2.45;0.63;;;32.80;79.40;;;;;;5107586;28;20043;-76
2022/08/31 09:40:48;;;;;;;0.50;0.50;;;33.00;77.60;;;;;;5116192;28;20051;-76
2022/08/31 09:43:14;;;;;;;0.50;0.50;;;32.60;75.30;;;;;;5116362;28;20098;-76
2022/08/31 09:46:02;;;;;;;0.77;0.70;;;32.20;75.00;;;;;;5098768;28;20044;-76
2022/08/31 09:48:38;;;;;;;0.93;0.60;;;31.00;76.80;;;;;;5109706;28;20535;-75
2022/08/31 09:51:05;;;;;;;0.95;0.60;;;32.10;76.60;;;;;;5095094;28;20016;-76
2022/08/31 09:56:25;;;;;;;0.75;0.65;;;31.00;75.50;;;;;;5094248;28;20366;-75
2022/08/31 09:59:04;;;;;;;1.27;0.50;;;32.20;75.60;;;;;;5094485;28;20028;-76
2022/08/31 10:01:42;;;;;;;0.50;0.50;;;31.80;74.90;;;;;;5095513;28;20023;-76
2022/08/31 10:04:25;;;;;;;1.85;0.50;;;32.10;74.50;;;;;;5095118;28;20032;-75
2022/08/31 10:07:10;;;;;;;1.35;0.70;;;31.70;72.00;;;;;;5112278;28;20098;-76
2022/08/31 10:09:59;;;;;;;1.02;0.65;;;32.40;73.90;;;;;;5108609;28;20027;-75
2022/08/31 10:12:28;;;;;;;2.08;0.82;;;31.30;73.80;;;;;;5103326;28;20046;-76
2022/08/31 10:15:01;;;;;;;1.48;0.50;;;31.10;73.90;;;;;;5115684;28;20020;-77
2022/08/31 10:17:44;;;;;;;1.42;0.52;;;31.10;72.20;;;;;;5095668;28;20455;-75
2022/08/31 10:20:29;;;;;;;1.73;0.60;;;30.10;71.70;;;;;;5113787;28;20019;-76
2022/08/31 10:23:05;;;;;;;0.82;0.68;;;31.70;73.40;;;;;;5127376;28;20030;-76
2022/08/31 10:25:51;;;;;;;0.40;0.40;;;31.30;71.80;;;;;;5119767;28;20035;-77
2022/08/31 10:28:30;;;;;;;0.60;0.50;;;30.90;69.90;;;;;;5114687;28;20022;-76
2022/08/31 10:31:15;;;;;;;1.65;0.63;;;32.30;71.40;;;;;;5093487;28;20081;-76
2022/08/31 10:36:48;;;;;;;0.90;0.60;;;34.10;70.00;;;;;;5114637;28;20372;-75
2022/08/31 10:39:43;;;;;;;0.75;0.47;;;32.40;67.90;;;;;;5114268;28;20107;-76
2022/08/31 10:42:16;;;;;;;3.70;0.50;;;32.00;68.30;;;;;;5113970;28;20023;-76
2022/08/31 10:44:55;;;;;;;0.77;0.50;;;30.30;69.20;;;;;;5114114;28;20019;-76
2022/08/31 10:47:27;;;;;;;0.73;0.55;;;30.30;71.20;;;;;;5113848;28;20068;-77
2022/08/31 10:49:57;;;;;;;0.90;0.57;;;27.40;68.80;;;;;;5113710;28;20366;-76
2022/08/31 10:52:31;;;;;;;1.30;0.50;;;27.00;73.00;;;;;;5113073;28;20049;-77
2022/08/31 10:55:04;;;;;;;1.25;0.50;;;29.10;73.40;;;;;;5107214;28;20139;-77
2022/08/31 10:57:55;;;;;;;3.47;0.75;;;26.80;74.50;;;;;;5096810;28;20016;-76
2022/08/31 11:00:44;;;;;;;0.65;0.43;;;27.70;75.00;;;;;;5103538;28;20024;-76
2022/08/31 11:03:44;;;;;;;1.58;0.70;;;27.40;75.40;;;;;;5116571;28;20028;-76
2022/08/31 11:06:28;;;;;;;6.53;0.70;;;26.30;75.10;;;;;;5116685;28;20051;-76
2022/08/31 11:09:20;;;;;;;0.70;0.40;;;24.60;77.10;;;;;;5117022;28;20362;-77
2022/08/31 11:12:14;;;;;;;1.70;0.80;;;23.90;76.60;;;;;;5116706;28;20032;-77
2022/08/31 11:15:16;;;;;;;0.52;0.30;;;23.90;78.70;;;;;;5114494;28;20055;-76
2022/08/31 11:17:54;;;;;;;1.20;0.50;;;23.60;78.50;;;;;;5116324;28;20119;-76
2022/08/31 11:20:50;;;;;;;1.50;0.40;;;23.70;79.20;;;;;;5116481;28;20015;-76
2022/08/31 11:23:37;;;;;;;1.15;0.60;;;23.30;80.40;;;;;;5116797;28;20019;-76
2022/08/31 11:26:42;;;;;;;1.48;0.50;;;23.40;82.70;;;;;;5116645;28;20049;-76
2022/08/31 11:29:33;;;;;;;0.77;0.63;;;23.00;81.10;;;;;;5113694;28;20016;-77
2022/08/31 11:32:13;;;;;;;0.40;0.40;;;22.90;81.50;;;;;;5115603;28;20019;-77
2022/08/31 11:34:49;;;;;;;0.95;0.45;;;22.90;82.60;;;;;;5115724;28;20627;-78
2022/08/31 11:37:53;;;;;;;3.25;0.80;;;23.00;83.70;;;;;;5111034;28;20097;-77
2022/08/31 11:40:42;;;;;;;0.45;0.45;;;23.10;85.00;;;;;;5099547;28;20485;-77
2022/08/31 11:43:30;;;;;;;0.52;0.40;;;22.80;84.50;;;;;;5099876;28;20024;-77
2022/08/31 11:46:00;;;;;;;1.17;0.43;;;22.80;84.40;;;;;;5097927;28;20024;-77
2022/08/31 11:48:50;;;;;;;;;;;23.10;84.50;;;;;;5112458;28;20790;-77
2022/08/31 11:51:32;;;;;;;;;;;23.20;85.60;;;;;;5094924;28;19908;-77
2022/08/31 11:54:04;;;;;;;2.85;0.50;;;23.10;85.90;;;;;;5096628;28;19904;-77
2022/08/31 11:56:35;;;;;;;0.38;0.38;;;23.30;86.30;;;;;;5095768;28;20107;-76
2022/08/31 11:59:30;;;;;;;1.17;0.40;;;23.60;87.20;;;;;;5095023;28;20055;-77
2022/08/31 12:02:00;;;;;;;0.43;0.40;;;23.80;89.60;;;;;;5094979;28;20024;-77
2022/08/31 12:04:28;;;;;;;0.38;0.38;;;23.50;90.50;;;;;;5106431;28;20055;-75
2022/08/31 12:07:03;;;;;;;0.32;0.30;;;23.00;90.60;;;;;;5115260;28;20065;-77
2022/08/31 12:09:35;;;;;;;3.47;1.25;;;22.70;91.20;;;;;;5115981;28;20403;-77
2022/08/31 12:12:28;;;;;;;1.25;0.63;;;22.70;91.40;;;;;;5116093;28;20020;-77
2022/08/31 12:15:13;;;;;;;0.73;0.47;;;22.90;91.90;;;;;;5106508;28;20027;-77
2022/08/31 12:17:45;;;;;;;0.57;0.50;;;22.90;92.20;;;;;;5115835;28;20031;-77
2022/08/31 12:20:28;;;;;;;2.17;0.50;;;23.20;92.60;;;;;;5117009;28;20103;-77
2022/08/31 12:23:39;;;;;;;0.85;0.50;;;23.10;92.50;;;;;;5115223;28;20465;-77
2022/08/31 12:26:15;;;;;;;1.05;0.50;;;22.60;92.80;;;;;;5108894;28;20024;-76
2022/08/31 12:29:01;;;;;;;1.67;0.40;;;23.00;94.00;;;;;;5114075;28;20030;-77
2022/08/31 12:31:27;;;;;;;2.67;0.50;;;23.50;94.00;;;;;;5114054;28;20024;-76
2022/08/31 12:34:04;;;;;;;0.63;0.60;;;23.30;93.60;;;;;;5095434;28;20078;-76
2022/08/31 12:36:32;;;;;;;0.88;0.63;;;23.00;94.10;;;;;;5112582;28;20479;-77
2022/08/31 12:39:10;;;;;;;1.48;0.65;;;22.80;94.00;;;;;;5115835;28;20085;-77
2022/08/31 12:41:48;;;;;;;1.00;0.57;;;22.80;94.40;;;;;;5115318;28;20032;-77
2022/08/31 12:44:21;;;;;;;3.70;0.65;;;23.00;94.50;;;;;;5115292;28;20019;-77
2022/08/31 12:47:10;;;;;;;0.55;0.40;;;23.00;94.50;;;;;;5116022;28;20030;-76
2022/08/31 12:49:58;;;;;;;1.45;0.30;;;23.20;95.00;;;;;;5096592;28;20031;-77
2022/08/31 12:53:05;;;;;;;0.85;0.50;;;23.00;94.80;;;;;;5073131;28;20032;-77
2022/08/31 12:55:58;;;;;;;0.68;0.55;;;22.90;94.30;;;;;;5094925;28;20024;-77
2022/08/31 12:58:39;;;;;;;3.42;0.65;;;23.10;95.10;;;;;;5094836;28;20095;-76
2022/08/31 13:01:09;;;;;;;1.65;0.57;;;23.00;95.50;;;;;;5114942;28;20084;-78
2022/08/31 13:03:38;;;;;;;2.15;0.60;;;22.60;95.50;;;;;;5123740;28;20071;-78
2022/08/31 13:06:12;;;;;;;1.95;0.77;;;23.00;96.60;;;;;;5117574;28;20078;-77
2022/08/31 13:08:46;;;;;;;0.43;0.40;;;22.90;96.10;;;;;;5104358;28;20024;-78
2022/08/31 13:11:44;;;;;;;1.13;0.70;;;22.80;96.40;;;;;;5113472;28;20020;-77
2022/08/31 13:14:25;;;;;;;2.60;0.80;;;23.00;97.60;;;;;;5114648;28;20047;-77
2022/08/31 13:17:02;;;;;;;0.90;0.60;;;23.10;97.30;;;;;;5117068;28;20049;-77
2022/08/31 13:19:31;;;;;;;1.38;0.60;;;23.30;97.70;;;;;;5118716;28;20032;-77
2022/08/31 13:22:03;;;;;;;1.10;0.50;;;22.80;97.60;;;;;;5125129;28;20035;-78
2022/08/31 13:24:41;;;;;;;0.75;0.70;;;23.00;98.20;;;;;;5125570;28;20069;-77
2022/08/31 13:27:28;;;;;;;0.65;0.60;;;22.90;98.50;;;;;;5106117;28;20075;-77